createdAt,value
2019-02-18T00:04:49.283Z,54.90
2019-02-18T00:09:55.022Z,49.50
2019-02-18T00:15:00.705Z,52.00
2019-02-18T00:20:05.822Z,53.47
2019-02-18T00:25:11.533Z,54.03
2019-02-18T00:30:15.806Z,50.67
2019-02-18T00:35:21.525Z,51.37
2019-02-18T00:40:27.210Z,53.63
2019-02-18T00:45:31.390Z,52.83
2019-02-18T00:50:35.954Z,53.40
2019-02-18T00:55:40.207Z,51.33
2019-02-18T01:00:45.321Z,53.17
2019-02-18T01:05:50.236Z,53.17
2019-02-18T01:10:55.395Z,54.53
2019-02-18T01:16:00.058Z,56.03
2019-02-18T01:21:04.441Z,58.93
2019-02-18T01:26:09.257Z,53.57
2019-02-18T01:31:13.565Z,55.80
2019-02-18T01:36:17.741Z,54.17
2019-02-18T01:41:22.376Z,56.07
2019-02-18T01:46:26.567Z,56.73
2019-02-18T01:51:30.730Z,55.23
2019-02-18T01:56:35.488Z,54.83
2019-02-18T02:01:39.638Z,55.23
2019-02-18T02:06:43.990Z,54.93
2019-02-18T02:11:48.248Z,54.93
2019-02-18T02:16:52.379Z,56.90
2019-02-18T02:21:56.614Z,56.60
2019-02-18T02:27:00.777Z,56.77
2019-02-18T02:32:05.725Z,56.80
2019-02-18T02:37:10.269Z,55.77
2019-02-18T02:42:15.992Z,58.57
2019-02-18T02:47:20.355Z,58.37
2019-02-18T02:52:24.522Z,56.97
2019-02-18T02:57:28.674Z,58.53
2019-02-18T03:02:32.823Z,59.00
2019-02-18T03:07:38.173Z,57.93
2019-02-18T03:12:42.345Z,57.60
2019-02-18T03:17:46.542Z,56.30
2019-02-18T03:22:50.785Z,58.13
2019-02-18T03:28:01.488Z,54.77
2019-02-18T03:33:07.416Z,57.63
2019-02-18T03:38:11.903Z,55.57
2019-02-18T03:43:16.424Z,56.13
2019-02-18T03:48:20.955Z,55.50
2019-02-18T03:53:25.426Z,58.43
2019-02-18T03:58:29.598Z,55.50
2019-02-18T04:03:33.959Z,56.00
2019-02-18T04:08:43.059Z,57.67
2019-02-18T04:13:44.250Z,57.70
2019-02-18T04:18:48.522Z,54.73
2019-02-18T04:23:52.741Z,55.00
2019-02-18T04:28:57.371Z,54.77
2019-02-18T04:34:01.625Z,53.40
2019-02-18T04:39:05.932Z,55.00
2019-02-18T04:44:10.159Z,53.57
2019-02-18T04:49:15.185Z,51.97
2019-02-18T04:54:19.494Z,52.83
2019-02-18T04:59:23.861Z,54.83
2019-02-18T05:04:28.083Z,52.63
2019-02-18T05:09:32.477Z,51.90
2019-02-18T05:14:36.739Z,54.87
2019-02-18T05:19:41.056Z,53.77
2019-02-18T05:24:45.325Z,52.63
2019-02-18T05:29:49.590Z,52.93
2019-02-18T05:34:54.042Z,51.03
2019-02-18T05:39:58.750Z,50.90
2019-02-18T05:45:04.198Z,53.27
2019-02-18T05:50:09.886Z,50.23
2019-02-18T05:55:15.594Z,50.03
2019-02-18T06:00:19.767Z,51.57
2019-02-18T06:05:25.470Z,52.50
2019-02-18T06:10:29.723Z,49.80
2019-02-18T06:15:34.168Z,49.33
2019-02-18T06:20:38.754Z,50.93
2019-02-18T06:25:43.847Z,48.83
2019-02-18T06:30:48.130Z,50.27
2019-02-18T06:35:52.377Z,48.53
2019-02-18T06:40:56.642Z,51.77
2019-02-18T06:46:00.954Z,49.27
2019-02-18T06:51:05.480Z,49.53
2019-02-18T06:56:10.136Z,49.23
2019-02-18T07:01:15.251Z,50.50
2019-02-18T07:06:19.815Z,49.47
2019-02-18T07:11:24.494Z,50.00
2019-02-18T07:16:28.662Z,48.73
2019-02-18T07:21:32.823Z,48.60
2019-02-18T07:26:37.151Z,48.93
2019-02-18T07:31:41.409Z,49.47
2019-02-18T07:36:45.845Z,48.10
2019-02-18T07:41:50.502Z,48.60
2019-02-18T07:46:56.205Z,46.70
2019-02-18T07:52:00.374Z,47.10
2019-02-18T07:57:05.263Z,47.23
2019-02-18T08:02:09.990Z,47.67
2019-02-18T08:07:15.738Z,46.93
2019-02-18T08:12:19.899Z,46.20
2019-02-18T08:17:24.184Z,46.07
2019-02-18T08:22:28.353Z,46.27
2019-02-18T08:27:32.510Z,47.97
2019-02-18T08:32:36.670Z,46.50
2019-02-18T08:37:41.823Z,46.80
2019-02-18T08:42:45.931Z,45.67
2019-02-18T08:47:50.999Z,45.83
2019-02-18T08:52:56.089Z,46.47
2019-02-18T08:58:00.554Z,45.60
2019-02-18T09:03:05.305Z,43.30
2019-02-18T09:08:10.994Z,44.50
2019-02-18T09:13:16.681Z,42.63
2019-02-18T09:18:21.654Z,44.23
2019-02-18T09:23:26.511Z,40.57
2019-02-18T09:28:31.028Z,42.60
2019-02-18T09:33:35.634Z,42.80
2019-02-18T09:38:39.854Z,40.47
2019-02-18T09:43:44.490Z,41.63
2019-02-18T09:48:48.645Z,40.80
2019-02-18T09:53:52.822Z,40.70
2019-02-18T09:58:56.945Z,40.40
2019-02-18T10:04:01.243Z,41.20
2019-02-18T10:09:05.900Z,40.17
2019-02-18T10:14:11.692Z,41.07
2019-02-18T10:19:17.402Z,41.57
2019-02-18T10:24:21.811Z,39.67
2019-02-18T10:29:26.131Z,39.10
2019-02-18T10:34:30.386Z,38.93
2019-02-18T10:39:36.101Z,38.07
2019-02-18T10:44:40.362Z,39.17
2019-02-18T10:49:44.603Z,39.70
2019-02-18T10:54:49.665Z,38.07
2019-02-18T10:59:54.295Z,37.80
2019-02-18T11:04:58.451Z,38.63
2019-02-18T11:10:02.844Z,38.30
2019-02-18T11:15:08.775Z,37.27
2019-02-18T11:20:14.403Z,36.20
2019-02-18T11:25:19.631Z,36.17
2019-02-18T11:30:24.094Z,37.37
2019-02-18T11:35:28.481Z,37.10
2019-02-18T11:40:33.224Z,35.97
2019-02-18T11:45:37.416Z,36.27
2019-02-18T11:50:41.622Z,35.30
2019-02-18T11:55:46.163Z,35.40
2019-02-18T12:00:50.420Z,33.37
2019-02-18T12:05:54.844Z,34.50
2019-02-18T12:10:59.306Z,34.70
2019-02-18T12:16:04.051Z,34.27
2019-02-18T12:21:09.088Z,34.40
2019-02-18T12:26:14.239Z,32.33
2019-02-18T12:31:19.644Z,33.13
2019-02-18T12:36:24.386Z,32.80
2019-02-18T12:41:29.710Z,32.67
2019-02-18T12:46:34.334Z,33.30
2019-02-18T12:51:38.843Z,33.13
2019-02-18T12:56:43.635Z,32.80
2019-02-18T13:01:48.227Z,33.07
2019-02-18T13:06:52.470Z,32.67
2019-02-18T13:11:59.074Z,30.13
2019-02-18T13:17:02.660Z,30.07
2019-02-18T13:22:06.865Z,30.33
2019-02-18T13:27:11.159Z,29.77
2019-02-18T13:32:17.014Z,31.30
2019-02-18T13:37:21.359Z,30.40
2019-02-18T13:42:25.723Z,30.20
2019-02-18T13:47:29.970Z,29.67
2019-02-18T13:52:34.817Z,28.57
2019-02-18T13:57:39.353Z,29.77
2019-02-18T14:02:43.845Z,30.20
2019-02-18T14:07:48.166Z,28.83
2019-02-18T14:12:52.706Z,27.37
2019-02-18T14:17:57.973Z,28.70
2019-02-18T14:23:02.233Z,26.83
2019-02-18T14:28:07.278Z,29.10
2019-02-18T14:33:11.562Z,27.97
2019-02-18T14:38:17.290Z,27.33
2019-02-18T14:43:21.539Z,27.77
2019-02-18T14:48:27.662Z,27.37
2019-02-18T14:53:31.901Z,27.27
2019-02-18T14:58:36.954Z,27.10
2019-02-18T15:03:41.349Z,27.47
2019-02-18T15:08:45.955Z,26.80
2019-02-18T15:13:50.218Z,27.83
2019-02-18T15:18:55.131Z,27.17
2019-02-18T15:23:59.459Z,25.90
2019-02-18T15:29:04.046Z,27.40
2019-02-18T15:34:08.706Z,26.93
2019-02-18T15:39:14.105Z,26.50
2019-02-18T15:44:19.977Z,27.13
2019-02-18T15:49:24.583Z,26.37
2019-02-18T15:54:28.881Z,25.47
2019-02-18T15:59:33.375Z,25.17
2019-02-18T16:04:41.036Z,25.97
2019-02-18T16:09:45.413Z,26.37
2019-02-18T16:14:50.004Z,27.30
2019-02-18T16:19:54.306Z,26.43
2019-02-18T16:24:58.825Z,26.40
2019-02-18T16:30:03.218Z,25.07
2019-02-18T16:35:08.778Z,27.43
2019-02-18T16:40:16.610Z,26.50
2019-02-18T16:45:21.199Z,25.93
2019-02-18T16:50:25.467Z,26.53
2019-02-18T16:55:29.954Z,26.93
2019-02-18T17:00:35.054Z,26.97
2019-02-18T17:05:39.457Z,26.83
2019-02-18T17:10:43.814Z,27.53
2019-02-18T17:15:48.292Z,26.87
2019-02-18T17:20:53.478Z,27.00
2019-02-18T17:25:58.486Z,28.73
2019-02-18T17:31:03.281Z,27.90
2019-02-18T17:36:08.965Z,28.30
2019-02-18T17:41:14.786Z,27.83
2019-02-18T17:46:19.255Z,28.00
2019-02-18T17:51:25.066Z,27.17
2019-02-18T17:56:29.262Z,28.27
2019-02-18T18:01:33.649Z,27.40
2019-02-18T18:06:38.074Z,29.07
2019-02-18T18:11:42.632Z,28.80
2019-02-18T18:16:47.205Z,28.13
2019-02-18T18:21:51.473Z,28.53
2019-02-18T18:26:55.867Z,29.30
2019-02-18T18:32:00.199Z,30.07
2019-02-18T18:37:05.957Z,31.57
2019-02-18T18:42:11.779Z,31.27
2019-02-18T18:47:17.490Z,32.00
2019-02-18T18:52:21.812Z,30.47
2019-02-18T18:57:26.193Z,32.37
2019-02-18T19:02:30.574Z,32.87
2019-02-18T19:07:35.095Z,34.97
2019-02-18T19:12:39.629Z,33.87
2019-02-18T19:17:43.962Z,36.13
2019-02-18T19:22:48.741Z,38.53
2019-02-18T19:27:52.975Z,39.90
2019-02-18T19:32:57.259Z,40.37
2019-02-18T19:38:01.569Z,38.30
2019-02-18T19:43:06.917Z,36.93
2019-02-18T19:48:12.145Z,38.07
2019-02-18T19:53:16.885Z,36.63
2019-02-18T19:58:21.446Z,37.27
2019-02-18T20:03:25.785Z,36.97
2019-02-18T20:08:30.786Z,40.37
2019-02-18T20:13:35.709Z,39.60
2019-02-18T20:18:40.784Z,40.80
2019-02-18T20:23:46.570Z,41.00
2019-02-18T20:28:50.901Z,41.57
2019-02-18T20:33:55.573Z,43.30
2019-02-18T20:38:59.931Z,45.00
2019-02-18T20:44:07.465Z,47.20
2019-02-18T20:49:11.699Z,44.70
2019-02-18T20:54:17.331Z,45.87
2019-02-18T20:59:21.561Z,45.20
2019-02-18T21:04:27.025Z,46.70
2019-02-18T21:09:31.583Z,45.93
2019-02-18T21:14:36.771Z,44.67
2019-02-18T21:19:41.339Z,51.47
2019-02-18T21:24:45.702Z,57.20
2019-02-18T21:29:50.695Z,60.93
2019-02-18T21:34:55.065Z,58.70
2019-02-18T21:39:59.770Z,60.77
2019-02-18T21:45:05.842Z,63.43
2019-02-18T21:50:10.857Z,63.60
2019-02-18T21:55:17.166Z,64.43
2019-02-18T22:00:22.017Z,66.40
2019-02-18T22:05:27.601Z,64.17
2019-02-18T22:10:32.810Z,64.93
2019-02-18T22:15:37.813Z,66.97
2019-02-18T22:20:42.389Z,68.30
2019-02-18T22:25:46.822Z,68.80
2019-02-18T22:30:51.015Z,70.20
2019-02-18T22:35:55.505Z,70.47
2019-02-18T22:40:59.944Z,70.47
2019-02-18T22:46:04.359Z,72.17
2019-02-18T22:51:09.299Z,72.03
2019-02-18T22:56:13.674Z,70.37
2019-02-18T23:01:18.151Z,74.33
2019-02-18T23:06:23.953Z,77.33
2019-02-18T23:11:28.750Z,76.83
2019-02-18T23:16:32.945Z,80.07
2019-02-18T23:21:38.038Z,80.10
2019-02-18T23:26:42.306Z,77.80
2019-02-18T23:31:47.046Z,76.60
2019-02-18T23:36:51.321Z,78.20
2019-02-18T23:41:57.517Z,73.73
2019-02-18T23:47:01.783Z,76.93
2019-02-18T23:52:06.694Z,81.07
2019-02-18T23:57:10.873Z,81.13
